Gillette Campbell County Airport
KGCC : rendu visible

Aérodrome :











RETROUVEZ-NOUS SUR...

 
LOGIN :

S'inscrire | Disclaimer

   EN    FR    IT 

 









Légende :    VFR   VFR Marginal   IFR   IFR Intensif   IFR Très Intensif
Visi : 
Plafond : 
>= 8 km
>= 3000ft
5 à 8 km
1000 à 3000 ft
1500m à 5 km
500 à 1000 ft
800 à 1500m
200 à 500 ft
< 800m
< 200 ft
Symboles :   Orages  Brouillard  Fortes neiges  Fortes précipitations  Vent > 20 kt






- Altitude de l'aérodrome : 4365 ft


KGCC - Gillette Campbell County

DERNIER METAR :
  • 261653Z AUTO 34014G22KT 10SM FEW100 20/06 A2997 RMK AO2 SLP128 T02000056

METARs EXPIRÉS :
  • 261553Z AUTO 32009KT 10SM BKN100 20/04 A2998 RMK AO2 SLP129 T02000044
  • 261453Z AUTO 30007KT 10SM BKN100 19/04 A2997 RMK AO2 SLP126 T01890044 53002

TAF KGCC
Valide du 26 à 18h jusqu'au 27 à 18h UTC


261720Z 2618/2718 33012KT P6SM FEW060
FM270300 19008KT P6SM BKN200
FIR KZDV / Amérique du Nord



MET'MAP, la Météo Aéronautique d'un coup d'oeil ! - Copyright ORBIFLY Décembre 2007 - Disclaimer

ORBIFLY MET'MAP TEAM :

Programmation & Développement : Alexandra Zaïnal
Sur une idée originale de : Baudouin d'Aumeries
Assistance à la programmation : Marc-Olivier Méhu
Soutien technique & logistique : Manuel Goepfert

Contact : metmap@orbifly.com




SOURCES & CREDITS :

   NOAA       Earth
Advisory